createdAt,value
2023-05-08T00:00:47.457Z,7.47
2023-05-08T00:03:32.661Z,7.72
2023-05-08T00:06:18.077Z,8.00
2023-05-08T00:09:03.069Z,6.40
2023-05-08T00:11:48.813Z,7.05
2023-05-08T00:14:33.608Z,7.70
2023-05-08T00:17:18.680Z,8.32
2023-05-08T00:20:04.004Z,7.55
2023-05-08T00:22:49.461Z,7.65
2023-05-08T00:25:34.356Z,7.63
2023-05-08T00:28:19.327Z,5.72
2023-05-08T00:31:04.452Z,6.43
2023-05-08T00:33:49.767Z,6.30
2023-05-08T00:36:34.547Z,7.07
2023-05-08T00:39:19.645Z,7.68
2023-05-08T00:42:04.560Z,6.45
2023-05-08T00:44:49.921Z,6.63
2023-05-08T00:47:35.319Z,6.38
2023-05-08T00:50:20.473Z,6.05
2023-05-08T00:53:05.376Z,7.03
2023-05-08T00:55:51.709Z,7.15
2023-05-08T00:58:38.006Z,7.05
2023-05-08T01:01:23.614Z,7.50
2023-05-08T01:04:08.719Z,7.90
2023-05-08T01:06:54.314Z,9.70
2023-05-08T01:09:39.779Z,6.80
2023-05-08T01:12:36.597Z,7.10
2023-05-08T01:15:29.416Z,6.68
2023-05-08T01:18:14.209Z,7.15
2023-05-08T01:21:18.180Z,6.90
2023-05-08T01:24:25.785Z,6.57
2023-05-08T01:27:37.578Z,8.75
2023-05-08T01:30:51.405Z,6.70
2023-05-08T01:34:19.517Z,6.57
2023-05-08T01:37:11.520Z,8.23
2023-05-08T01:40:22.355Z,7.93
2023-05-08T01:43:34.095Z,6.57
2023-05-08T01:46:31.612Z,7.93
2023-05-08T01:49:32.846Z,8.55
2023-05-08T01:52:31.634Z,8.77
2023-05-08T01:55:24.095Z,7.15
2023-05-08T01:58:11.589Z,7.45
2023-05-08T02:00:58.857Z,7.40
2023-05-08T02:03:45.922Z,8.15
2023-05-08T02:06:32.337Z,8.43
2023-05-08T02:09:19.815Z,8.43
2023-05-08T02:14:55.077Z,10.07
2023-05-08T02:23:33.825Z,7.90
2023-05-08T02:26:21.328Z,8.25
2023-05-08T02:29:07.164Z,8.38
2023-05-08T02:31:54.509Z,7.47
2023-05-08T02:34:45.213Z,5.93
2023-05-08T02:37:37.459Z,8.40
2023-05-08T02:40:24.542Z,7.18
2023-05-08T02:43:09.652Z,7.57
2023-05-08T02:46:03.871Z,7.18
2023-05-08T02:52:18.572Z,8.73
2023-05-08T02:55:11.943Z,8.40
2023-05-08T02:58:17.881Z,7.35
2023-05-08T03:01:11.231Z,9.18
2023-05-08T03:04:08.998Z,7.88
2023-05-08T03:06:56.678Z,8.00
2023-05-08T03:09:45.287Z,7.13
2023-05-08T03:12:33.757Z,7.47
2023-05-08T03:15:25.693Z,8.82
2023-05-08T03:18:16.093Z,6.95
2023-05-08T03:21:02.454Z,8.23
2023-05-08T03:23:49.855Z,8.05
2023-05-08T03:26:36.237Z,8.05
2023-05-08T03:29:24.366Z,7.45
2023-05-08T03:32:12.105Z,8.18
2023-05-08T03:34:59.019Z,6.65
2023-05-08T03:37:44.397Z,7.88
2023-05-08T03:40:29.568Z,7.85
2023-05-08T03:43:16.461Z,7.93
2023-05-08T03:46:01.868Z,6.75
2023-05-08T03:48:49.131Z,7.60
2023-05-08T03:51:38.032Z,8.55
2023-05-08T03:54:27.840Z,7.18
2023-05-08T03:57:13.024Z,11.18
2023-05-08T04:00:06.248Z,8.57
2023-05-08T04:03:12.781Z,7.35
2023-05-08T04:06:28.686Z,7.47
2023-05-08T04:09:27.468Z,7.82
2023-05-08T04:12:23.639Z,8.85
2023-05-08T04:15:23.118Z,7.78
2023-05-08T04:18:12.450Z,9.45
2023-05-08T04:20:59.254Z,7.85
2023-05-08T04:23:47.828Z,8.23
2023-05-08T04:26:34.684Z,7.55
2023-05-08T04:29:20.241Z,8.50
2023-05-08T04:32:06.368Z,6.97
2023-05-08T04:34:51.509Z,7.32
2023-05-08T04:37:37.432Z,10.23
2023-05-08T04:40:22.353Z,8.15
2023-05-08T04:43:07.621Z,8.55
2023-05-08T04:45:52.869Z,6.45
2023-05-08T04:48:37.910Z,8.95
2023-05-08T04:51:23.086Z,7.88
2023-05-08T04:54:07.970Z,8.15
2023-05-08T04:56:52.955Z,7.35
2023-05-08T04:59:37.829Z,7.40
2023-05-08T05:02:22.750Z,7.13
2023-05-08T05:05:08.102Z,9.90
2023-05-08T05:07:52.965Z,8.52
2023-05-08T05:10:39.623Z,7.40
2023-05-08T05:13:24.847Z,9.25
2023-05-08T05:16:09.717Z,7.22
2023-05-08T05:18:55.261Z,7.65
2023-05-08T05:21:40.495Z,7.20
2023-05-08T05:24:25.942Z,8.88
2023-05-08T05:27:11.189Z,8.93
2023-05-08T05:29:56.668Z,6.95
2023-05-08T05:32:41.599Z,7.13
2023-05-08T05:35:27.062Z,7.40
2023-05-08T05:38:12.150Z,6.90
2023-05-08T05:40:57.188Z,6.82
2023-05-08T05:43:42.401Z,7.50
2023-05-08T05:46:33.222Z,9.57
2023-05-08T05:49:18.466Z,8.00
2023-05-08T05:52:03.487Z,6.50
2023-05-08T05:54:48.750Z,9.38
2023-05-08T05:57:33.734Z,7.53
2023-05-08T06:00:18.973Z,8.15
2023-05-08T06:03:04.505Z,8.82
2023-05-08T06:05:49.814Z,7.82
2023-05-08T06:08:35.008Z,9.65
2023-05-08T06:11:20.447Z,10.02
2023-05-08T06:14:05.217Z,8.02
2023-05-08T06:16:50.308Z,8.55
2023-05-08T06:19:35.024Z,8.43
2023-05-08T06:22:23.530Z,8.73
2023-05-08T06:25:09.558Z,10.35
2023-05-08T06:27:54.673Z,8.68
2023-05-08T06:30:39.536Z,7.90
2023-05-08T06:33:26.802Z,9.85
2023-05-08T06:36:12.785Z,7.07
2023-05-08T06:38:58.180Z,8.57
2023-05-08T06:41:43.116Z,7.60
2023-05-08T06:44:27.927Z,7.80
2023-05-08T06:47:12.709Z,7.88
2023-05-08T06:49:57.636Z,7.13
2023-05-08T06:52:42.489Z,8.18
2023-05-08T06:55:27.443Z,8.20
2023-05-08T06:58:12.984Z,10.27
2023-05-08T07:01:04.298Z,8.60
2023-05-08T07:03:49.562Z,9.93
2023-05-08T07:06:35.161Z,9.52
2023-05-08T07:09:19.989Z,9.68
2023-05-08T07:12:05.331Z,8.73
2023-05-08T07:14:50.470Z,10.57
2023-05-08T07:17:36.836Z,9.70
2023-05-08T07:20:22.492Z,9.02
2023-05-08T07:23:07.706Z,7.53
2023-05-08T07:25:53.835Z,8.38
2023-05-08T07:28:38.896Z,10.23
2023-05-08T07:31:23.889Z,8.93
2023-05-08T07:34:08.800Z,9.70
2023-05-08T07:36:53.645Z,9.00
2023-05-08T07:39:38.614Z,10.63
2023-05-08T07:42:23.372Z,7.78
2023-05-08T07:45:10.140Z,7.85
2023-05-08T07:47:57.311Z,9.15
2023-05-08T07:53:27.429Z,7.72
2023-05-08T07:56:12.385Z,8.25
2023-05-08T07:58:57.853Z,7.72
2023-05-08T08:01:47.078Z,9.00
2023-05-08T08:04:32.155Z,9.48
2023-05-08T08:07:23.598Z,9.90
2023-05-08T08:10:09.495Z,8.63
2023-05-08T08:12:55.135Z,8.02
2023-05-08T08:15:39.930Z,8.50
2023-05-08T08:18:25.155Z,8.57
2023-05-08T08:21:10.254Z,7.40
2023-05-08T08:23:55.160Z,7.35
2023-05-08T08:26:40.497Z,8.60
2023-05-08T08:29:25.797Z,9.57
2023-05-08T08:32:10.751Z,7.80
2023-05-08T08:34:55.636Z,7.72
2023-05-08T08:37:40.809Z,8.88
2023-05-08T08:40:26.169Z,10.40
2023-05-08T08:43:11.391Z,9.27
2023-05-08T08:45:56.225Z,6.75
2023-05-08T08:48:45.806Z,7.38
2023-05-08T08:51:45.796Z,7.20
2023-05-08T08:54:34.775Z,6.90
2023-05-08T08:57:21.127Z,7.00
2023-05-08T09:00:09.899Z,8.43
2023-05-08T09:02:54.899Z,6.15
2023-05-08T09:05:40.121Z,8.07
2023-05-08T09:08:25.879Z,8.55
2023-05-08T09:11:11.019Z,7.38
2023-05-08T09:13:56.401Z,7.22
2023-05-08T09:16:41.389Z,5.90
2023-05-08T09:19:28.764Z,5.70
2023-05-08T09:22:14.611Z,5.97
2023-05-08T09:25:01.826Z,6.93
2023-05-08T09:27:47.036Z,6.80
2023-05-08T09:30:47.868Z,7.50
2023-05-08T09:33:32.717Z,6.60
2023-05-08T09:36:28.748Z,6.97
2023-05-08T09:39:23.005Z,6.43
2023-05-08T09:42:08.302Z,8.02
2023-05-08T09:44:54.156Z,5.47
2023-05-08T09:47:47.790Z,5.70
2023-05-08T09:50:33.561Z,6.60
2023-05-08T09:53:19.793Z,5.90
2023-05-08T09:56:06.093Z,6.53
2023-05-08T09:58:51.332Z,8.43
2023-05-08T10:01:36.929Z,5.57
2023-05-08T10:04:32.572Z,5.65
2023-05-08T10:07:27.826Z,5.90
2023-05-08T10:10:12.893Z,7.28
2023-05-08T10:12:58.680Z,5.93
2023-05-08T10:15:45.214Z,11.07
2023-05-08T10:18:35.865Z,6.28
2023-05-08T10:21:22.428Z,6.47
2023-05-08T10:24:13.995Z,7.63
2023-05-08T10:27:14.198Z,5.20
2023-05-08T10:30:04.104Z,5.95
2023-05-08T10:32:55.018Z,7.53
2023-05-08T10:35:40.692Z,6.07
2023-05-08T10:38:25.991Z,6.25
2023-05-08T10:41:11.338Z,5.43
2023-05-08T10:43:57.264Z,6.13
2023-05-08T10:46:54.404Z,5.45
2023-05-08T10:50:12.158Z,6.25
2023-05-08T10:53:07.734Z,5.28
2023-05-08T10:55:53.890Z,6.03
2023-05-08T10:58:41.781Z,5.38
2023-05-08T11:01:27.098Z,6.18
2023-05-08T11:04:21.922Z,5.95
2023-05-08T11:07:07.649Z,4.95
2023-05-08T11:09:53.908Z,5.95
2023-05-08T11:12:48.981Z,6.13
2023-05-08T11:15:41.671Z,6.45
2023-05-08T11:18:38.507Z,5.47
2023-05-08T11:21:33.693Z,7.28
2023-05-08T11:24:18.923Z,6.72
2023-05-08T11:27:04.163Z,5.43
2023-05-08T11:30:22.930Z,5.22
2023-05-08T11:33:10.938Z,5.85
2023-05-08T11:36:16.309Z,6.32
2023-05-08T11:41:53.365Z,8.27
2023-05-08T11:44:38.568Z,5.75
2023-05-08T11:47:26.364Z,6.68
2023-05-08T11:50:13.520Z,6.30
2023-05-08T11:52:59.502Z,7.25
2023-05-08T11:55:48.255Z,5.65
2023-05-08T11:58:33.561Z,9.05
2023-05-08T12:01:21.359Z,5.80
2023-05-08T12:04:11.041Z,6.45
2023-05-08T12:06:59.677Z,4.93
2023-05-08T12:09:48.404Z,4.55
2023-05-08T12:12:41.221Z,4.97
2023-05-08T12:15:26.084Z,5.95
2023-05-08T12:18:10.947Z,5.95
2023-05-08T12:21:00.769Z,6.00
2023-05-08T12:23:45.766Z,5.60
2023-05-08T12:26:36.246Z,6.68
2023-05-08T12:29:21.224Z,12.65
2023-05-08T12:32:06.383Z,5.43
2023-05-08T12:34:52.433Z,5.15
2023-05-08T12:37:39.080Z,5.22
2023-05-08T12:40:33.883Z,6.03
2023-05-08T12:43:18.908Z,7.30
2023-05-08T12:46:05.374Z,5.30
2023-05-08T12:51:35.950Z,4.55
2023-05-08T12:54:31.170Z,6.53
2023-05-08T12:57:18.855Z,5.78
2023-05-08T13:00:05.159Z,4.38
2023-05-08T13:02:54.755Z,9.88
2023-05-08T13:05:45.541Z,5.20
2023-05-08T13:08:33.493Z,5.68
2023-05-08T13:11:30.348Z,4.22
2023-05-08T13:14:16.014Z,4.00
2023-05-08T13:17:01.396Z,4.18
2023-05-08T13:19:47.043Z,5.97
2023-05-08T13:22:32.074Z,5.05
2023-05-08T13:25:17.070Z,5.90
2023-05-08T13:28:02.919Z,5.68
2023-05-08T13:30:48.459Z,6.80
2023-05-08T13:33:34.793Z,4.32
2023-05-08T13:36:21.430Z,4.85
2023-05-08T13:39:07.353Z,3.58
2023-05-08T13:41:52.440Z,3.80
2023-05-08T13:44:38.753Z,5.30
2023-05-08T13:47:23.683Z,3.90
2023-05-08T13:50:11.320Z,8.13
2023-05-08T13:52:56.746Z,4.55
2023-05-08T13:55:42.201Z,3.30
2023-05-08T13:58:28.243Z,3.45
2023-05-08T14:01:25.889Z,3.78
2023-05-08T14:04:13.241Z,3.58
2023-05-08T14:09:43.379Z,4.63
2023-05-08T14:12:28.625Z,3.20
2023-05-08T14:15:14.292Z,3.33
2023-05-08T14:17:59.484Z,3.25
2023-05-08T14:20:49.004Z,4.10
2023-05-08T14:23:38.640Z,4.05
2023-05-08T14:26:23.865Z,4.03
2023-05-08T14:29:08.651Z,4.38
2023-05-08T14:31:53.590Z,4.30
2023-05-08T14:34:39.027Z,4.75
2023-05-08T14:37:24.011Z,3.45
2023-05-08T14:40:09.157Z,5.35
2023-05-08T14:42:53.975Z,5.50
2023-05-08T14:45:38.778Z,6.65
2023-05-08T14:48:23.992Z,3.90
2023-05-08T14:51:08.880Z,2.97
2023-05-08T14:53:54.024Z,3.58
2023-05-08T14:56:47.103Z,4.40
2023-05-08T14:59:33.119Z,3.10
2023-05-08T15:02:20.483Z,3.75
2023-05-08T15:05:10.752Z,4.55
2023-05-08T15:07:59.229Z,4.40
2023-05-08T15:10:46.962Z,3.58
2023-05-08T15:13:32.498Z,3.40
2023-05-08T15:16:17.626Z,5.40
2023-05-08T15:19:03.002Z,6.47
2023-05-08T15:21:47.930Z,4.57
2023-05-08T15:24:32.887Z,4.78
2023-05-08T15:27:18.159Z,7.60
2023-05-08T15:30:03.423Z,3.45
2023-05-08T15:32:48.724Z,4.63
2023-05-08T15:35:33.718Z,3.78
2023-05-08T15:38:18.552Z,6.47
2023-05-08T15:41:04.963Z,5.82
2023-05-08T15:43:49.752Z,4.30
2023-05-08T15:46:34.810Z,4.47
2023-05-08T15:49:20.579Z,3.80
2023-05-08T15:52:05.483Z,3.30
2023-05-08T15:54:50.376Z,3.78
2023-05-08T15:57:35.718Z,3.67
2023-05-08T16:00:23.041Z,4.20
2023-05-08T16:03:10.243Z,3.28
2023-05-08T16:05:55.538Z,4.10
2023-05-08T16:08:40.598Z,3.30
2023-05-08T16:11:26.134Z,3.42
2023-05-08T16:14:11.082Z,4.25
2023-05-08T16:16:56.866Z,4.35
2023-05-08T16:19:42.812Z,4.15
2023-05-08T16:22:27.832Z,3.28
2023-05-08T16:25:12.940Z,4.10
2023-05-08T16:27:58.881Z,3.95
2023-05-08T16:30:44.046Z,4.45
2023-05-08T16:33:30.276Z,5.03
2023-05-08T16:36:16.430Z,5.05
2023-05-08T16:39:01.615Z,2.35
2023-05-08T16:41:46.505Z,2.55
2023-05-08T16:44:32.384Z,4.80
2023-05-08T16:47:17.616Z,3.03
2023-05-08T16:50:03.667Z,3.90
2023-05-08T16:52:48.954Z,3.35
2023-05-08T16:55:34.318Z,3.75
2023-05-08T16:58:22.817Z,2.60
2023-05-08T17:01:08.645Z,4.32
2023-05-08T17:03:53.507Z,4.85
2023-05-08T17:06:40.762Z,3.70
2023-05-08T17:09:27.660Z,3.08
2023-05-08T17:12:13.341Z,3.30
2023-05-08T17:15:01.200Z,3.80
2023-05-08T17:17:47.639Z,3.55
2023-05-08T17:20:40.884Z,4.40
2023-05-08T17:23:27.098Z,2.38
2023-05-08T17:26:12.013Z,3.08
2023-05-08T17:28:57.030Z,2.83
2023-05-08T17:31:42.039Z,3.25
2023-05-08T17:34:28.719Z,4.10
2023-05-08T17:37:14.027Z,4.82
2023-05-08T17:39:59.932Z,5.13
2023-05-08T17:42:45.511Z,2.47
2023-05-08T17:45:32.008Z,3.08
2023-05-08T17:48:16.652Z,3.83
2023-05-08T17:51:03.792Z,4.05
2023-05-08T17:53:49.625Z,3.45
2023-05-08T17:56:36.022Z,3.33
2023-05-08T17:59:21.957Z,4.75
2023-05-08T18:02:09.727Z,3.67
2023-05-08T18:04:55.689Z,3.70
2023-05-08T18:07:42.615Z,2.78
2023-05-08T18:10:27.721Z,3.30
2023-05-08T18:13:12.982Z,4.07
2023-05-08T18:16:00.171Z,3.22
2023-05-08T18:21:31.770Z,4.20
2023-05-08T18:24:19.549Z,4.38
2023-05-08T18:27:05.522Z,3.25
2023-05-08T18:29:50.703Z,4.07
2023-05-08T18:32:37.124Z,3.92
2023-05-08T18:35:22.252Z,3.08
2023-05-08T18:41:11.846Z,3.53
2023-05-08T18:43:57.226Z,4.35
2023-05-08T18:46:42.825Z,7.07
2023-05-08T18:49:31.626Z,4.80
2023-05-08T18:52:18.199Z,2.95
2023-05-08T18:55:04.011Z,3.83
2023-05-08T18:57:50.245Z,3.92
2023-05-08T19:00:40.175Z,3.40
2023-05-08T19:03:25.665Z,4.50
2023-05-08T19:06:11.138Z,3.50
2023-05-08T19:08:56.086Z,5.32
2023-05-08T19:11:42.074Z,2.70
2023-05-08T19:14:27.255Z,2.90
2023-05-08T19:17:14.029Z,7.18
2023-05-08T19:19:58.945Z,3.38
2023-05-08T19:22:45.416Z,3.50
2023-05-08T19:25:33.172Z,5.65
2023-05-08T19:28:18.766Z,5.53
2023-05-08T19:31:03.625Z,4.88
2023-05-08T19:33:49.489Z,4.32
2023-05-08T19:36:38.017Z,7.47
2023-05-08T19:39:23.096Z,5.60
2023-05-08T19:42:11.380Z,5.40
2023-05-08T19:44:56.317Z,3.47
2023-05-08T19:47:41.328Z,5.32
2023-05-08T19:50:26.471Z,4.88
2023-05-08T19:53:11.708Z,3.40
2023-05-08T19:55:57.160Z,4.85
2023-05-08T19:58:42.173Z,3.40
2023-05-08T20:01:28.173Z,3.42
2023-05-08T20:04:13.639Z,9.85
2023-05-08T20:06:59.221Z,3.25
2023-05-08T20:09:46.730Z,4.00
2023-05-08T20:12:33.357Z,4.13
2023-05-08T20:15:18.865Z,6.70
2023-05-08T20:18:04.278Z,6.25
2023-05-08T20:20:49.375Z,4.85
2023-05-08T20:23:34.195Z,4.30
2023-05-08T20:26:19.095Z,4.47
2023-05-08T20:29:05.636Z,4.43
2023-05-08T20:31:52.989Z,2.70
2023-05-08T20:34:37.744Z,3.78
2023-05-08T20:37:23.305Z,4.80
2023-05-08T20:40:10.212Z,5.60
2023-05-08T20:42:56.527Z,4.55
2023-05-08T20:45:41.695Z,3.08
2023-05-08T20:48:26.684Z,2.97
2023-05-08T20:51:14.304Z,3.83
2023-05-08T20:54:00.274Z,3.88
2023-05-08T20:56:45.359Z,5.22
2023-05-08T20:59:30.773Z,3.60
2023-05-08T21:02:15.848Z,5.43
2023-05-08T21:05:02.453Z,4.30
2023-05-08T21:07:48.786Z,4.60
2023-05-08T21:10:35.090Z,3.60
2023-05-08T21:13:21.530Z,7.53
2023-05-08T21:16:08.243Z,4.07
2023-05-08T21:18:54.439Z,5.10
2023-05-08T21:21:41.034Z,12.55
2023-05-08T21:24:26.533Z,2.88
2023-05-08T21:27:11.843Z,5.28
2023-05-08T21:29:57.169Z,4.70
2023-05-08T21:32:44.054Z,7.35
2023-05-08T21:35:29.842Z,4.65
2023-05-08T21:38:16.274Z,3.90
2023-05-08T21:41:10.877Z,4.35
2023-05-08T21:43:58.505Z,6.90
2023-05-08T21:46:43.900Z,2.67
2023-05-08T21:49:29.062Z,5.13
2023-05-08T21:52:14.757Z,5.00
2023-05-08T21:54:59.735Z,4.63
2023-05-08T21:57:44.607Z,4.93
2023-05-08T22:00:29.527Z,4.57
2023-05-08T22:03:15.219Z,3.30
2023-05-08T22:06:00.536Z,5.25
2023-05-08T22:08:46.304Z,8.32
2023-05-08T22:11:31.504Z,4.28
2023-05-08T22:14:16.849Z,5.80
2023-05-08T22:17:01.752Z,8.00
2023-05-08T22:19:47.098Z,3.35
2023-05-08T22:22:32.021Z,6.70
2023-05-08T22:25:18.814Z,5.50
2023-05-08T22:28:04.103Z,5.82
2023-05-08T22:30:49.036Z,4.82
2023-05-08T22:33:34.723Z,3.45
2023-05-08T22:36:19.594Z,3.45
2023-05-08T22:39:12.137Z,4.57
2023-05-08T22:41:57.246Z,5.30
2023-05-08T22:44:43.535Z,7.55
2023-05-08T22:47:28.544Z,5.38
2023-05-08T22:50:14.048Z,3.83
2023-05-08T22:52:59.430Z,3.28
2023-05-08T22:55:44.960Z,5.28
2023-05-08T22:58:29.835Z,6.25
2023-05-08T23:01:17.144Z,4.07
2023-05-08T23:04:02.307Z,8.30
2023-05-08T23:06:47.532Z,5.07
2023-05-08T23:09:32.497Z,5.15
2023-05-08T23:12:17.284Z,3.72
2023-05-08T23:15:02.507Z,4.40
2023-05-08T23:17:48.323Z,4.22
2023-05-08T23:20:33.257Z,5.55
2023-05-08T23:23:18.271Z,3.53
2023-05-08T23:26:04.969Z,5.90
2023-05-08T23:28:50.129Z,8.52
2023-05-08T23:31:35.017Z,4.10
2023-05-08T23:34:20.595Z,4.07
2023-05-08T23:37:05.701Z,4.43
2023-05-08T23:39:51.250Z,4.25
2023-05-08T23:42:37.112Z,8.57
2023-05-08T23:45:22.225Z,3.78
2023-05-08T23:48:07.993Z,6.07
2023-05-08T23:50:53.386Z,5.57
2023-05-08T23:53:38.307Z,4.32
2023-05-08T23:56:23.439Z,4.80
2023-05-08T23:59:08.450Z,5.70
